Time;durP1;ratioP1;P1;durP2;ratioP2;P2;SDS_P1;SDS_P2;PMS_P1;PMS_P2;Temp;Humidity;BMP_temperature;BMP_pressure;BME280_temperature;BME280_humidity;BME280_pressure;Samples;Min_cycle;Max_cycle;Signal;HPM_P1;HPM_P2
2021/01/01 00:01:14;;;;;;;119.37;86.00;;;6.00;89.40;;;;;;5098260;28;20036;-63
2021/01/01 00:03:40;;;;;;;114.10;82.37;;;6.10;89.20;;;;;;5098272;28;20055;-63
2021/01/01 00:06:10;;;;;;;116.53;82.83;;;6.10;89.10;;;;;;5086003;28;20431;-63
2021/01/01 00:08:36;;;;;;;116.07;85.73;;;6.10;89.80;;;;;;5096568;28;20060;-64
2021/01/01 00:11:01;;;;;;;114.63;84.13;;;6.00;89.10;;;;;;5078186;28;20549;-63
2021/01/01 00:13:27;;;;;;;119.10;86.27;;;6.00;88.70;;;;;;5098151;28;20054;-64
2021/01/01 00:15:53;;;;;;;113.43;83.83;;;6.10;90.00;;;;;;5097581;28;20405;-63
2021/01/01 00:18:18;;;;;;;117.43;85.27;;;6.00;89.50;;;;;;5085243;28;20539;-63
2021/01/01 00:20:44;;;;;;;119.63;88.03;;;6.00;88.80;;;;;;5095392;28;20046;-62
2021/01/01 00:23:10;;;;;;;131.87;95.80;;;6.10;89.70;;;;;;5095801;28;20047;-62
2021/01/01 00:25:37;;;;;;;146.70;104.83;;;6.10;89.70;;;;;;5089520;28;20044;-63
2021/01/01 00:28:03;;;;;;;146.30;105.50;;;6.10;89.80;;;;;;5100359;28;20036;-62
2021/01/01 00:30:29;;;;;;;146.50;102.07;;;6.20;89.50;;;;;;5098353;28;20054;-63
2021/01/01 00:32:54;;;;;;;143.13;101.77;;;6.20;89.20;;;;;;5087379;28;20039;-62
2021/01/01 00:35:21;;;;;;;140.43;100.03;;;6.00;88.40;;;;;;5096862;28;20048;-63
2021/01/01 00:37:46;;;;;;;125.90;91.80;;;6.10;89.10;;;;;;5099526;28;20507;-63
2021/01/01 00:40:12;;;;;;;122.20;88.20;;;6.10;89.00;;;;;;5098613;28;20047;-63
2021/01/01 00:42:38;;;;;;;119.93;86.00;;;6.20;88.70;;;;;;5094226;28;20067;-63
2021/01/01 00:45:06;;;;;;;119.03;85.63;;;6.20;88.80;;;;;;5097842;28;20560;-64
2021/01/01 00:47:32;;;;;;;114.80;84.53;;;6.20;89.30;;;;;;5091414;28;20036;-63
2021/01/01 00:49:58;;;;;;;116.97;82.30;;;6.20;88.60;;;;;;5095645;28;20051;-63
2021/01/01 00:52:25;;;;;;;118.00;86.43;;;6.20;88.60;;;;;;5094026;28;20061;-63
2021/01/01 00:54:54;;;;;;;124.60;88.17;;;6.20;88.30;;;;;;5100424;28;20122;-63
2021/01/01 00:57:20;;;;;;;131.20;86.73;;;6.30;89.50;;;;;;5095362;27;20024;-63
2021/01/01 00:59:45;;;;;;;125.83;92.83;;;6.10;88.30;;;;;;5105082;27;20043;-63
2021/01/01 01:02:11;;;;;;;134.70;93.13;;;6.20;89.20;;;;;;5103927;27;20649;-63
2021/01/01 01:04:37;;;;;;;139.63;96.77;;;6.20;88.60;;;;;;5102411;27;20032;-63
2021/01/01 01:07:03;;;;;;;136.10;93.63;;;6.20;88.50;;;;;;5102338;27;20074;-63
2021/01/01 01:09:28;;;;;;;141.17;100.70;;;6.20;88.00;;;;;;5105582;27;20032;-63
2021/01/01 01:11:54;;;;;;;134.73;99.13;;;6.30;88.90;;;;;;5100059;27;20032;-64
2021/01/01 01:14:20;;;;;;;142.33;100.97;;;6.30;88.30;;;;;;5106976;27;20032;-63
2021/01/01 01:16:46;;;;;;;140.60;100.30;;;6.30;88.60;;;;;;5106379;27;20035;-63
2021/01/01 01:19:11;;;;;;;133.03;91.30;;;6.30;89.30;;;;;;5100568;27;20088;-62
2021/01/01 01:21:37;;;;;;;126.60;89.03;;;6.30;89.10;;;;;;5092040;28;20036;-64
2021/01/01 01:24:03;;;;;;;144.00;102.57;;;6.30;89.00;;;;;;5101466;27;20039;-63
2021/01/01 01:26:28;;;;;;;153.97;106.10;;;6.40;89.10;;;;;;5083419;28;20469;-63
2021/01/01 01:28:54;;;;;;;162.00;111.20;;;6.40;88.50;;;;;;5083944;28;20131;-63
2021/01/01 01:31:20;;;;;;;165.33;116.30;;;6.40;89.30;;;;;;5084333;28;20123;-63
2021/01/01 01:33:46;;;;;;;176.97;121.07;;;6.40;89.40;;;;;;5103019;27;20495;-62
2021/01/01 01:36:12;;;;;;;163.73;115.37;;;6.40;89.20;;;;;;5091365;28;20089;-63
2021/01/01 01:38:38;;;;;;;175.50;116.43;;;6.40;88.60;;;;;;5098388;27;20032;-63
2021/01/01 01:41:04;;;;;;;169.50;119.87;;;6.40;87.90;;;;;;5103508;27;20051;-63
2021/01/01 01:43:30;;;;;;;164.17;110.50;;;6.40;88.40;;;;;;5101186;27;20048;-63
2021/01/01 01:45:56;;;;;;;168.20;117.43;;;6.50;88.60;;;;;;5102553;28;20101;-62
2021/01/01 01:48:26;;;;;;;178.10;123.33;;;6.50;89.00;;;;;;5092057;27;20046;-63
2021/01/01 01:50:54;;;;;;;162.97;110.67;;;6.50;88.70;;;;;;5101610;27;20046;-64
2021/01/01 01:53:25;;;;;;;173.30;119.87;;;6.50;88.40;;;;;;5099311;27;20077;-63
2021/01/01 01:55:52;;;;;;;168.97;117.20;;;6.50;88.30;;;;;;5096076;28;20040;-63
2021/01/01 01:58:21;;;;;;;164.90;113.40;;;6.50;89.80;;;;;;5097724;27;20092;-63
2021/01/01 02:00:56;;;;;;;139.67;96.07;;;6.50;90.20;;;;;;5098602;27;20062;-62
2021/01/01 02:03:22;;;;;;;133.63;93.93;;;6.50;89.10;;;;;;5100711;27;20036;-63
2021/01/01 02:05:48;;;;;;;106.00;75.60;;;6.50;89.70;;;;;;5083404;28;20047;-62
2021/01/01 02:08:14;;;;;;;114.30;75.63;;;6.50;88.80;;;;;;5089995;28;20500;-62
2021/01/01 02:10:39;;;;;;;102.27;75.13;;;6.50;88.10;;;;;;5095498;28;20036;-61
2021/01/01 02:13:05;;;;;;;91.60;67.73;;;6.50;89.40;;;;;;5097235;27;20088;-63
2021/01/01 02:15:31;;;;;;;87.37;61.80;;;6.50;89.10;;;;;;5096185;28;20032;-63
2021/01/01 02:18:43;;;;;;;90.40;64.30;;;6.50;88.50;;;;;;5083186;27;20040;-64
2021/01/01 02:21:13;;;;;;;84.10;57.67;;;6.50;88.20;;;;;;5069923;27;20540;-60
2021/01/01 02:23:39;;;;;;;85.00;58.50;;;6.50;87.20;;;;;;5105104;27;20042;-63
2021/01/01 02:26:05;;;;;;;86.33;60.70;;;6.50;88.10;;;;;;5096283;28;20044;-63
2021/01/01 02:28:31;;;;;;;78.37;54.63;;;6.60;88.40;;;;;;5105796;27;20035;-63
2021/01/01 02:30:57;;;;;;;78.17;55.90;;;6.60;88.20;;;;;;5097923;27;20047;-63
2021/01/01 02:33:26;;;;;;;77.60;55.83;;;6.60;88.40;;;;;;5094882;27;20040;-63
2021/01/01 02:35:52;;;;;;;75.10;50.23;;;6.70;88.00;;;;;;5092739;28;20043;-63
2021/01/01 02:38:17;;;;;;;74.10;49.17;;;6.60;87.50;;;;;;5102304;27;20039;-63
2021/01/01 02:40:43;;;;;;;64.27;45.13;;;6.70;87.90;;;;;;5085086;28;20122;-63
2021/01/01 02:43:09;;;;;;;67.00;43.80;;;6.60;87.30;;;;;;5080717;27;20038;-63
2021/01/01 02:45:34;;;;;;;62.33;44.47;;;6.60;86.90;;;;;;5097973;27;22593;-63
2021/01/01 02:48:16;;;;;;;62.60;42.43;;;6.60;86.80;;;;;;5086613;28;20036;-63
2021/01/01 02:50:43;;;;;;;61.73;42.80;;;6.60;86.30;;;;;;5096237;27;20039;-63
2021/01/01 02:53:08;;;;;;;63.50;44.67;;;6.60;88.00;;;;;;5096565;28;20044;-64
2021/01/01 02:55:34;;;;;;;57.77;41.00;;;6.60;87.20;;;;;;5097488;28;20436;-65
2021/01/01 02:58:00;;;;;;;50.87;35.73;;;6.60;87.30;;;;;;5092702;28;20047;-64
2021/01/01 03:00:27;;;;;;;45.03;32.63;;;6.60;85.90;;;;;;5100510;28;20032;-64
2021/01/01 03:02:54;;;;;;;45.93;32.93;;;6.60;86.30;;;;;;5095629;27;20093;-64
2021/01/01 03:05:20;;;;;;;41.30;30.13;;;6.60;86.20;;;;;;5088189;28;20085;-63
2021/01/01 03:07:45;;;;;;;51.03;34.27;;;6.50;86.40;;;;;;5092676;27;20051;-63
2021/01/01 03:10:11;;;;;;;45.20;32.80;;;6.60;87.30;;;;;;5102023;27;20957;-62
2021/01/01 03:12:37;;;;;;;39.90;29.57;;;6.60;86.70;;;;;;5093393;28;20107;-64
2021/01/01 03:15:04;;;;;;;42.20;30.80;;;6.60;86.00;;;;;;5098147;28;20092;-63
2021/01/01 03:17:30;;;;;;;39.90;28.57;;;6.60;86.30;;;;;;5096904;28;20449;-64
2021/01/01 03:19:56;;;;;;;39.90;29.93;;;6.60;86.50;;;;;;5087833;28;20122;-63
2021/01/01 03:22:21;;;;;;;43.17;30.17;;;6.60;86.30;;;;;;5083274;28;20043;-64
2021/01/01 03:24:47;;;;;;;42.57;31.20;;;6.60;86.40;;;;;;5100381;27;20530;-63
2021/01/01 03:27:12;;;;;;;45.30;32.13;;;6.60;86.20;;;;;;5095909;28;20049;-64
2021/01/01 03:29:38;;;;;;;43.87;29.80;;;6.60;86.20;;;;;;5087407;28;20032;-64
2021/01/01 03:32:04;;;;;;;48.30;32.40;;;6.60;85.80;;;;;;5099813;27;20040;-64
2021/01/01 03:37:51;;;;;;;45.43;33.10;;;6.60;84.90;;;;;;5043765;27;20094;-63
2021/01/01 03:40:17;;;;;;;47.97;34.10;;;6.50;85.90;;;;;;5098316;28;20075;-63
2021/01/01 03:42:42;;;;;;;46.57;35.47;;;6.50;86.90;;;;;;5099993;27;20588;-63
2021/01/01 03:45:10;;;;;;;44.13;32.47;;;6.50;86.50;;;;;;5101366;27;20122;-63
2021/01/01 03:47:36;;;;;;;60.53;41.80;;;6.60;86.30;;;;;;5093206;28;20124;-63
2021/01/01 03:50:02;;;;;;;62.47;41.77;;;6.60;87.40;;;;;;5098938;27;20571;-63
2021/01/01 03:52:28;;;;;;;97.83;67.70;;;6.60;87.40;;;;;;5097566;28;20393;-63
2021/01/01 03:54:53;;;;;;;105.00;74.23;;;6.60;87.90;;;;;;5094331;28;20130;-63
2021/01/01 03:57:19;;;;;;;110.87;78.97;;;6.60;88.20;;;;;;5098419;27;20476;-63
2021/01/01 03:59:44;;;;;;;67.13;47.47;;;6.60;88.50;;;;;;5101640;27;20106;-63
2021/01/01 04:02:10;;;;;;;120.37;87.17;;;6.50;87.40;;;;;;5095330;28;20035;-63
2021/01/01 04:04:36;;;;;;;115.27;80.97;;;6.50;88.70;;;;;;5087643;28;20098;-63
2021/01/01 04:07:01;;;;;;;106.50;76.67;;;6.40;88.90;;;;;;5097181;28;20378;-63
2021/01/01 04:09:33;;;;;;;100.63;71.70;;;6.50;89.20;;;;;;5094809;28;20040;-63
2021/01/01 04:11:59;;;;;;;115.63;81.20;;;6.50;88.50;;;;;;5092783;28;20036;-63
2021/01/01 04:14:24;;;;;;;110.43;78.10;;;6.50;89.30;;;;;;5094214;27;20047;-63
2021/01/01 04:16:50;;;;;;;113.87;81.47;;;6.50;89.10;;;;;;5094590;28;20398;-63
2021/01/01 04:19:16;;;;;;;116.50;84.33;;;6.50;89.60;;;;;;5095530;28;20126;-63
2021/01/01 04:21:46;;;;;;;113.87;82.20;;;6.50;90.00;;;;;;5093816;28;20032;-62
2021/01/01 04:27:33;;;;;;;114.57;79.93;;;6.40;90.40;;;;;;5047874;28;20515;-64
2021/01/01 04:29:59;;;;;;;107.60;77.07;;;6.30;90.70;;;;;;5096793;27;20036;-64
2021/01/01 04:32:24;;;;;;;108.47;77.77;;;6.30;90.50;;;;;;5104261;28;20413;-64
2021/01/01 04:34:50;;;;;;;103.87;75.20;;;6.30;90.60;;;;;;5099080;28;20047;-63
2021/01/01 04:37:16;;;;;;;104.23;76.07;;;6.30;90.40;;;;;;5095021;27;20036;-63
2021/01/01 04:39:42;;;;;;;102.97;73.07;;;6.20;90.80;;;;;;5108310;27;20489;-62
2021/01/01 04:42:18;;;;;;;102.27;73.60;;;6.20;90.90;;;;;;5104001;27;20326;-63
2021/01/01 04:44:44;;;;;;;102.50;77.67;;;6.30;91.10;;;;;;5095096;28;20040;-64
2021/01/01 04:47:12;;;;;;;110.07;77.37;;;6.20;91.40;;;;;;5101591;27;20123;-64
2021/01/01 04:53:01;;;;;;;105.70;78.10;;;6.10;92.40;;;;;;5043803;28;20038;-63
2021/01/01 04:55:28;;;;;;;110.80;77.10;;;6.00;92.10;;;;;;5096472;28;20038;-64
2021/01/01 04:57:54;;;;;;;101.10;72.30;;;6.10;92.40;;;;;;5099477;27;20039;-63
2021/01/01 05:00:21;;;;;;;100.87;72.40;;;6.10;92.40;;;;;;5089393;28;20035;-63
2021/01/01 05:02:47;;;;;;;95.37;70.30;;;6.10;92.60;;;;;;5085884;28;20058;-64
2021/01/01 05:05:12;;;;;;;82.23;58.73;;;6.10;93.00;;;;;;5102362;28;20486;-63
2021/01/01 05:07:38;;;;;;;79.40;55.53;;;6.00;92.50;;;;;;5099684;27;20046;-64
2021/01/01 05:10:04;;;;;;;63.50;45.30;;;6.00;92.60;;;;;;5105697;27;20036;-64
2021/01/01 05:12:31;;;;;;;61.20;42.17;;;6.00;92.10;;;;;;5093359;28;20127;-64
2021/01/01 05:14:58;;;;;;;64.00;44.37;;;5.90;92.10;;;;;;5098482;28;20055;-64
2021/01/01 05:17:36;;;;;;;54.87;38.90;;;6.00;92.00;;;;;;5092620;27;20122;-64
2021/01/01 05:20:07;;;;;;;55.67;37.80;;;6.00;92.20;;;;;;5104672;27;20063;-64
2021/01/01 05:22:33;;;;;;;48.10;35.50;;;6.00;92.10;;;;;;5093909;27;20032;-63
2021/01/01 05:25:03;;;;;;;44.87;32.50;;;6.10;92.00;;;;;;5083506;27;20044;-63
2021/01/01 05:27:34;;;;;;;41.20;29.30;;;6.10;91.90;;;;;;5098755;27;20050;-63
2021/01/01 05:30:00;;;;;;;41.40;29.00;;;6.10;91.60;;;;;;5101849;27;20046;-63
2021/01/01 05:32:30;;;;;;;37.47;27.70;;;6.10;91.80;;;;;;5094253;28;20515;-63
2021/01/01 05:34:59;;;;;;;30.67;22.63;;;6.10;91.90;;;;;;5071037;28;20422;-63
2021/01/01 05:37:28;;;;;;;32.97;24.80;;;6.10;91.40;;;;;;5063855;28;20032;-63
2021/01/01 05:40:06;;;;;;;28.60;23.53;;;6.10;91.50;;;;;;5067372;28;20470;-63
2021/01/01 05:42:32;;;;;;;31.13;23.60;;;6.10;91.90;;;;;;5058170;28;21043;-63
2021/01/01 05:45:17;;;;;;;33.87;24.30;;;6.10;91.70;;;;;;5065053;28;20041;-63
2021/01/01 05:48:05;;;;;;;34.97;24.27;;;6.20;91.90;;;;;;5059399;28;20052;-63
2021/01/01 05:50:32;;;;;;;30.93;23.10;;;6.20;91.80;;;;;;5064209;28;20028;-64
2021/01/01 05:53:17;;;;;;;32.27;23.37;;;6.10;91.70;;;;;;5053591;28;20082;-63
2021/01/01 05:55:45;;;;;;;28.30;22.17;;;6.00;92.40;;;;;;5062656;28;20044;-63
2021/01/01 05:58:21;;;;;;;30.60;24.07;;;6.10;92.20;;;;;;5060319;28;20039;-63
2021/01/01 06:00:53;;;;;;;30.77;20.37;;;6.10;92.30;;;;;;5050055;28;20398;-63
2021/01/01 06:03:26;;;;;;;25.27;20.70;;;6.00;92.00;;;;;;5053466;28;20032;-63
2021/01/01 06:06:35;;;;;;;27.60;20.50;;;6.00;91.80;;;;;;5064060;28;20060;-63
2021/01/01 06:09:06;;;;;;;28.30;20.03;;;5.90;92.20;;;;;;5044201;28;20116;-64
2021/01/01 06:11:58;;;;;;;29.50;19.80;;;5.90;92.40;;;;;;5060935;28;20101;-64
2021/01/01 06:14:33;;;;;;;28.97;20.80;;;6.00;92.30;;;;;;5046275;28;20056;-63
2021/01/01 06:17:20;;;;;;;29.13;20.73;;;5.90;92.40;;;;;;5068644;28;20047;-63
2021/01/01 06:19:46;;;;;;;29.97;21.47;;;5.90;92.40;;;;;;5058621;28;20040;-63
2021/01/01 06:22:18;;;;;;;32.07;22.10;;;5.80;92.60;;;;;;5056821;28;20037;-62
2021/01/01 06:24:57;;;;;;;31.57;23.10;;;5.90;92.70;;;;;;5057566;28;20123;-62
2021/01/01 06:27:28;;;;;;;32.77;23.03;;;5.80;92.50;;;;;;5061312;28;20101;-63
2021/01/01 06:29:58;;;;;;;28.93;22.87;;;5.90;92.70;;;;;;5055821;28;20236;-63
2021/01/01 06:39:37;;;;;;;28.00;20.33;;;5.90;92.50;;;;;;5010919;28;20052;-64
2021/01/01 06:42:03;;;;;;;27.53;21.17;;;5.80;92.70;;;;;;5059844;28;20048;-63
2021/01/01 06:44:39;;;;;;;33.30;22.03;;;5.80;92.80;;;;;;5060614;28;20033;-63
2021/01/01 06:47:07;;;;;;;27.87;21.13;;;5.80;92.80;;;;;;5062249;28;20133;-63
2021/01/01 06:50:29;;;;;;;34.67;23.10;;;5.60;92.70;;;;;;5056098;28;20037;-64
2021/01/01 06:53:03;;;;;;;35.90;26.20;;;5.80;93.00;;;;;;5015037;28;20394;-63
2021/01/01 06:55:37;;;;;;;39.72;27.58;;;5.60;93.00;;;;;;5050988;28;20452;-63
2021/01/01 06:58:07;;;;;;;37.43;26.97;;;5.70;93.20;;;;;;5062838;28;20060;-63
2021/01/01 07:00:44;;;;;;;40.83;29.40;;;5.70;93.30;;;;;;5075704;28;20267;-62
2021/01/01 07:03:30;;;;;;;38.67;29.43;;;5.70;93.40;;;;;;5061151;28;20036;-64
2021/01/01 07:06:01;;;;;;;;;;;5.60;93.60;;;;;;5016407;28;20049;-64
2021/01/01 07:08:42;;;;;;;41.53;32.00;;;5.60;94.00;;;;;;5060350;28;19912;-63
2021/01/01 07:11:10;;;;;;;45.17;33.23;;;5.60;93.80;;;;;;5054889;28;20033;-63
2021/01/01 07:13:49;;;;;;;41.97;32.30;;;5.60;93.70;;;;;;5066803;28;20044;-63
2021/01/01 07:16:18;;;;;;;42.73;31.77;;;5.70;93.70;;;;;;5061706;28;20042;-63
2021/01/01 07:18:48;;;;;;;46.50;33.63;;;5.70;93.70;;;;;;5061599;28;20033;-63
2021/01/01 07:21:15;;;;;;;42.60;32.53;;;5.60;93.30;;;;;;5051513;28;20463;-63
2021/01/01 07:27:03;;;;;;;44.53;33.53;;;5.60;94.00;;;;;;5007234;28;20118;-64
2021/01/01 07:29:29;;;;;;;47.10;33.93;;;5.60;93.90;;;;;;5057797;28;20487;-63
2021/01/01 07:32:30;;;;;;;42.57;29.77;;;5.60;93.90;;;;;;5059538;28;20094;-63
2021/01/01 07:34:55;;;;;;;42.17;28.73;;;5.60;93.90;;;;;;5038661;28;20517;-63
2021/01/01 07:37:27;;;;;;;38.17;28.03;;;5.70;93.90;;;;;;5058292;28;20041;-63
2021/01/01 07:39:54;;;;;;;39.73;29.40;;;5.70;93.80;;;;;;5096926;27;20188;-63
2021/01/01 07:42:20;;;;;;;35.83;26.80;;;5.60;93.90;;;;;;5092385;28;20112;-63
2021/01/01 07:44:50;;;;;;;33.40;25.17;;;5.60;93.80;;;;;;5096821;27;20515;-63
2021/01/01 07:47:15;;;;;;;30.47;23.47;;;5.50;93.50;;;;;;5078301;28;20813;-63
2021/01/01 07:49:41;;;;;;;39.50;26.03;;;5.50;93.80;;;;;;5090290;28;20104;-64
2021/01/01 07:52:07;;;;;;;31.70;24.90;;;5.60;93.90;;;;;;5093970;28;20077;-64
2021/01/01 07:54:45;;;;;;;32.53;24.03;;;5.60;93.80;;;;;;5094043;27;20048;-63
2021/01/01 08:00:36;;;;;;;32.07;23.27;;;5.80;93.80;;;;;;4994063;28;20075;-63
2021/01/01 08:03:03;;;;;;;29.10;22.37;;;5.70;93.90;;;;;;5092571;28;20092;-63
2021/01/01 08:05:29;;;;;;;31.30;23.53;;;5.70;93.70;;;;;;5096818;27;20084;-63
2021/01/01 08:08:09;;;;;;;29.57;21.50;;;5.80;93.90;;;;;;5097972;27;20044;-63
2021/01/01 08:10:35;;;;;;;27.53;20.20;;;5.70;93.60;;;;;;5095881;28;20039;-63
2021/01/01 08:13:00;;;;;;;27.00;19.07;;;5.80;93.80;;;;;;5090468;28;20093;-63
2021/01/01 08:15:30;;;;;;;29.03;21.17;;;5.80;93.90;;;;;;5096679;28;20044;-63
2021/01/01 08:18:06;;;;;;;26.40;19.77;;;5.90;93.90;;;;;;5098498;28;20390;-64
2021/01/01 08:20:32;;;;;;;27.30;20.47;;;5.90;93.80;;;;;;5095702;28;20481;-63
2021/01/01 08:23:02;;;;;;;24.73;19.10;;;5.90;93.90;;;;;;5101220;28;20052;-63
2021/01/01 08:25:29;;;;;;;26.17;18.40;;;5.90;93.90;;;;;;5062649;28;20082;-63
2021/01/01 08:27:55;;;;;;;23.70;18.30;;;5.90;93.90;;;;;;5094602;28;20091;-63
2021/01/01 08:30:21;;;;;;;28.90;20.17;;;5.90;93.90;;;;;;5099816;28;20043;-63
2021/01/01 08:32:50;;;;;;;26.23;19.90;;;5.70;94.00;;;;;;5101259;28;20089;-64
2021/01/01 08:35:16;;;;;;;26.77;19.67;;;5.70;94.20;;;;;;5095970;28;20473;-62
2021/01/01 08:37:42;;;;;;;22.27;17.23;;;5.80;93.90;;;;;;5097537;28;20046;-63
2021/01/01 08:40:10;;;;;;;25.03;17.63;;;5.60;93.70;;;;;;5058125;28;20064;-64
2021/01/01 08:42:37;;;;;;;25.73;18.50;;;5.70;94.00;;;;;;5057906;28;20039;-63
2021/01/01 08:45:11;;;;;;;26.07;18.53;;;5.80;94.30;;;;;;5060052;28;20572;-63
2021/01/01 08:47:45;;;;;;;27.50;18.13;;;5.90;94.00;;;;;;5059359;28;20044;-63
2021/01/01 08:50:21;;;;;;;22.80;17.23;;;5.70;93.90;;;;;;5060604;28;20040;-63
2021/01/01 08:52:58;;;;;;;25.60;17.60;;;5.70;94.20;;;;;;5061940;28;20036;-63
2021/01/01 08:55:24;;;;;;;20.63;16.37;;;5.80;94.40;;;;;;5068142;28;20099;-63
2021/01/01 08:57:50;;;;;;;22.03;17.13;;;5.80;94.10;;;;;;5058280;28;20045;-63
2021/01/01 09:00:17;;;;;;;23.40;17.53;;;5.70;94.10;;;;;;5054027;28;20504;-62
2021/01/01 09:02:45;;;;;;;21.07;16.23;;;5.80;94.20;;;;;;5042745;28;20498;-63
2021/01/01 09:05:11;;;;;;;21.20;16.63;;;5.80;93.80;;;;;;5054892;28;20738;-62
2021/01/01 09:07:37;;;;;;;20.90;17.50;;;5.90;94.10;;;;;;5057401;28;20041;-62
2021/01/01 09:10:19;;;;;;;22.07;16.93;;;5.90;94.30;;;;;;5058287;28;22169;-63
2021/01/01 09:12:45;;;;;;;21.43;16.77;;;5.90;94.20;;;;;;5056772;28;20040;-62
2021/01/01 09:15:11;;;;;;;20.07;16.63;;;5.80;94.10;;;;;;5058824;28;20036;-63
2021/01/01 09:17:37;;;;;;;21.50;16.67;;;5.70;94.10;;;;;;5057142;28;20044;-63
2021/01/01 09:20:09;;;;;;;20.93;16.77;;;5.70;94.00;;;;;;5061744;28;20090;-64
2021/01/01 09:22:37;;;;;;;21.80;15.73;;;5.70;94.30;;;;;;5058256;28;20078;-62
2021/01/01 09:25:23;;;;;;;18.67;16.00;;;5.80;94.40;;;;;;5062569;28;20052;-63
2021/01/01 09:27:50;;;;;;;20.93;16.13;;;5.80;94.20;;;;;;5013317;28;20118;-62
2021/01/01 09:30:21;;;;;;;17.93;15.00;;;5.70;94.20;;;;;;5063162;28;20033;-63
2021/01/01 09:32:52;;;;;;;19.83;15.10;;;5.70;94.30;;;;;;5072845;28;20040;-62
2021/01/01 09:35:18;;;;;;;19.03;15.03;;;5.60;93.90;;;;;;5059695;28;20048;-62
2021/01/01 09:37:57;;;;;;;21.60;17.00;;;5.50;94.20;;;;;;5056362;28;20047;-62
2021/01/01 09:40:25;;;;;;;23.67;16.93;;;5.60;94.40;;;;;;5015562;28;20036;-62
2021/01/01 09:42:51;;;;;;;19.63;15.13;;;5.70;94.30;;;;;;5053673;28;20483;-62
2021/01/01 09:45:18;;;;;;;19.90;15.63;;;5.80;94.20;;;;;;5059589;28;20036;-62
2021/01/01 09:47:44;;;;;;;17.87;15.10;;;5.70;94.50;;;;;;5056985;28;20598;-62
2021/01/01 09:50:10;;;;;;;19.07;13.80;;;5.80;94.40;;;;;;5060866;28;20476;-62
2021/01/01 09:52:36;;;;;;;18.63;14.77;;;5.70;94.30;;;;;;5055680;28;20086;-63
2021/01/01 09:55:07;;;;;;;20.73;15.50;;;5.70;94.50;;;;;;5057834;28;20078;-63
2021/01/01 09:57:33;;;;;;;19.43;15.20;;;5.70;94.20;;;;;;5053178;28;20043;-63
2021/01/01 09:59:58;;;;;;;20.23;14.13;;;5.80;94.40;;;;;;5059717;28;20452;-63
2021/01/01 10:02:24;;;;;;;16.63;13.80;;;5.60;93.90;;;;;;5056275;28;20044;-63
2021/01/01 10:04:51;;;;;;;17.70;13.17;;;5.70;94.00;;;;;;5057539;28;20398;-62
2021/01/01 10:07:17;;;;;;;19.63;14.80;;;5.80;94.20;;;;;;5057968;28;20490;-61
2021/01/01 10:09:43;;;;;;;19.63;14.43;;;5.80;94.00;;;;;;5054844;28;20040;-63
2021/01/01 10:12:12;;;;;;;21.23;15.77;;;5.90;94.20;;;;;;5059099;28;20044;-62
2021/01/01 10:14:37;;;;;;;18.40;14.07;;;5.90;94.70;;;;;;5054767;28;20546;-62
2021/01/01 10:17:03;;;;;;;18.40;13.33;;;5.80;93.80;;;;;;5064122;28;20036;-62
2021/01/01 10:19:29;;;;;;;20.57;15.37;;;5.70;93.80;;;;;;5055618;28;20033;-62
2021/01/01 10:21:54;;;;;;;20.93;16.33;;;5.60;94.00;;;;;;5061892;28;20120;-62
2021/01/01 10:24:21;;;;;;;18.50;15.83;;;5.80;94.30;;;;;;5053963;28;20424;-62
2021/01/01 10:26:51;;;;;;;19.07;14.77;;;5.80;94.00;;;;;;5064859;28;20481;-62
2021/01/01 10:29:17;;;;;;;20.70;16.50;;;5.80;93.90;;;;;;5052230;28;20066;-61
2021/01/01 10:31:44;;;;;;;21.23;16.53;;;5.90;93.90;;;;;;5058145;28;20044;-63
2021/01/01 10:34:10;;;;;;;20.17;15.93;;;6.00;94.00;;;;;;5054723;28;20052;-62
2021/01/01 10:36:36;;;;;;;21.70;15.90;;;5.90;93.90;;;;;;5059647;28;20090;-64
2021/01/01 10:39:03;;;;;;;19.37;14.73;;;6.00;93.80;;;;;;5077148;28;20078;-63
2021/01/01 10:41:28;;;;;;;19.53;14.30;;;5.80;95.20;;;;;;5057296;28;20917;-64
2021/01/01 10:43:54;;;;;;;17.70;14.67;;;5.90;95.00;;;;;;5054535;28;20045;-64
2021/01/01 10:46:19;;;;;;;19.77;15.80;;;5.90;95.20;;;;;;5058399;28;20048;-63
2021/01/01 10:48:46;;;;;;;20.67;15.57;;;5.90;95.10;;;;;;5073351;28;20600;-62
2021/01/01 10:51:22;;;;;;;19.83;16.20;;;5.80;94.90;;;;;;5070861;28;20137;-63
2021/01/01 10:53:48;;;;;;;19.60;15.00;;;5.90;94.20;;;;;;5057645;28;20170;-63
2021/01/01 10:56:25;;;;;;;17.17;14.30;;;5.90;94.70;;;;;;5056405;28;20045;-63
2021/01/01 10:58:51;;;;;;;18.87;14.77;;;5.90;94.50;;;;;;5035830;28;20040;-63
2021/01/01 11:01:20;;;;;;;21.40;15.30;;;5.80;94.30;;;;;;5055032;28;20487;-62
2021/01/01 11:03:47;;;;;;;17.47;14.50;;;5.90;94.50;;;;;;5058725;28;20494;-62
2021/01/01 11:06:13;;;;;;;18.37;16.20;;;5.80;93.90;;;;;;5056430;28;20048;-63
2021/01/01 11:08:43;;;;;;;20.33;16.50;;;5.80;94.40;;;;;;5060255;28;20893;-63
2021/01/01 11:11:11;;;;;;;20.13;16.87;;;5.70;94.80;;;;;;5055581;28;20044;-63
2021/01/01 11:13:41;;;;;;;21.83;16.73;;;5.80;95.10;;;;;;5059053;28;20036;-63
2021/01/01 12:25:14;;;;;;;29.67;21.10;;;5.40;95.30;;;;;;5092420;28;20043;-61
2021/01/01 12:27:41;;;;;;;28.77;19.57;;;5.40;95.60;;;;;;5092796;28;20486;-61
2021/01/01 12:30:07;;;;;;;24.90;18.40;;;5.40;95.60;;;;;;5097865;28;20088;-61
2021/01/01 12:32:37;;;;;;;25.03;17.70;;;5.40;95.70;;;;;;5097952;28;20031;-61
2021/01/01 12:35:03;;;;;;;26.17;18.27;;;5.40;95.40;;;;;;5079579;28;20510;-61
2021/01/01 12:37:29;;;;;;;24.77;17.43;;;5.40;96.30;;;;;;5099004;28;20031;-61
2021/01/01 12:39:54;;;;;;;23.83;17.27;;;5.30;96.70;;;;;;5097015;28;20048;-61
2021/01/01 12:42:20;;;;;;;24.53;17.97;;;5.30;96.60;;;;;;5090626;28;20036;-61
2021/01/01 12:44:46;;;;;;;22.87;16.27;;;5.30;96.90;;;;;;5088414;28;20063;-61
2021/01/01 12:54:27;;;;;;;19.67;14.40;;;5.20;98.10;;;;;;5046531;28;20419;-61
2021/01/01 12:56:53;;;;;;;17.90;13.90;;;5.20;98.60;;;;;;5040613;28;20049;-61
2021/01/01 12:59:19;;;;;;;18.87;13.73;;;5.20;97.70;;;;;;5099722;28;20048;-63
2021/01/01 13:01:44;;;;;;;18.33;13.63;;;5.10;97.30;;;;;;5098034;28;20036;-61
2021/01/01 13:04:10;;;;;;;17.40;14.03;;;5.20;97.80;;;;;;5097880;27;20436;-61
2021/01/01 13:06:36;;;;;;;18.43;14.57;;;5.20;97.60;;;;;;5100628;27;20500;-52
2021/01/01 13:09:02;;;;;;;16.30;12.93;;;5.10;96.20;;;;;;5085794;28;20187;-62
2021/01/01 13:11:29;;;;;;;16.83;13.03;;;5.00;97.60;;;;;;5092620;27;20485;-61
2021/01/01 13:13:55;;;;;;;16.63;12.87;;;5.10;98.40;;;;;;5100824;27;20507;-62
2021/01/01 13:16:26;;;;;;;16.07;11.87;;;5.00;98.00;;;;;;5083443;28;20080;-61
2021/01/01 13:18:52;;;;;;;16.90;12.80;;;4.90;98.50;;;;;;5102297;27;20051;-61
2021/01/01 13:21:32;;;;;;;15.83;13.23;;;5.00;98.70;;;;;;5096964;27;20046;-61
2021/01/01 13:23:59;;;;;;;16.57;11.77;;;5.20;99.90;;;;;;5099429;28;20043;-62
2021/01/01 13:26:26;;;;;;;13.90;11.73;;;5.00;99.90;;;;;;5101792;27;20126;-61
2021/01/01 13:28:53;;;;;;;14.60;11.10;;;5.10;99.90;;;;;;5101168;27;20383;-62
2021/01/01 13:31:19;;;;;;;13.70;10.80;;;5.10;99.40;;;;;;5099185;28;20416;-60
2021/01/01 13:33:45;;;;;;;10.40;9.03;;;5.00;99.90;;;;;;5105249;28;20130;-62
2021/01/01 13:36:18;;;;;;;12.73;9.37;;;5.10;99.90;;;;;;5097693;28;20066;-61
2021/01/01 13:38:45;;;;;;;12.13;9.13;;;5.10;99.90;;;;;;5101312;27;20051;-62
2021/01/01 13:41:13;;;;;;;9.97;8.63;;;5.10;99.90;;;;;;5096292;28;20986;-62
2021/01/01 13:43:45;;;;;;;10.07;9.07;;;5.10;99.90;;;;;;5101882;27;20040;-61
2021/01/01 13:46:19;;;;;;;10.63;9.27;;;5.10;99.90;;;;;;5077252;28;20501;-61
2021/01/01 13:48:45;;;;;;;12.43;8.90;;;5.20;99.90;;;;;;5101083;28;20032;-62
2021/01/01 13:51:11;;;;;;;10.47;8.57;;;5.10;99.90;;;;;;5102379;27;20526;-62
2021/01/01 13:53:36;;;;;;;11.43;9.17;;;5.20;99.90;;;;;;5099828;28;20040;-61
2021/01/01 13:56:02;;;;;;;11.83;9.90;;;5.20;99.90;;;;;;5102212;28;20054;-62
2021/01/01 13:58:27;;;;;;;8.67;7.60;;;5.20;99.90;;;;;;5096546;28;20055;-61
2021/01/01 14:00:56;;;;;;;9.73;8.13;;;5.10;99.90;;;;;;5102996;27;20036;-61
2021/01/01 14:03:22;;;;;;;10.00;7.90;;;5.20;99.90;;;;;;5097070;28;20477;-61
2021/01/01 14:05:48;;;;;;;9.67;7.63;;;5.20;99.90;;;;;;5101241;28;20036;-60
2021/01/01 14:08:18;;;;;;;9.47;7.60;;;5.20;99.90;;;;;;5098971;28;20445;-62
2021/01/01 14:10:45;;;;;;;9.00;6.90;;;5.30;99.90;;;;;;5102463;28;20082;-61
2021/01/01 14:13:11;;;;;;;9.73;7.50;;;5.10;99.90;;;;;;5099291;28;20100;-61
2021/01/01 14:15:36;;;;;;;8.37;6.57;;;5.00;99.90;;;;;;5102157;27;20048;-62
2021/01/01 14:18:03;;;;;;;8.67;6.93;;;5.00;99.90;;;;;;5098598;28;20039;-61
2021/01/01 14:20:29;;;;;;;8.13;7.23;;;5.10;99.90;;;;;;5100981;28;20089;-61
2021/01/01 14:22:55;;;;;;;8.73;7.70;;;5.10;99.90;;;;;;5097574;28;20048;-62